Time;durP1;ratioP1;P1;durP2;ratioP2;P2;SDS_P1;SDS_P2;PMS_P1;PMS_P2;Temp;Humidity;BMP_temperature;BMP_pressure;BME280_temperature;BME280_humidity;BME280_pressure;Samples;Min_cycle;Max_cycle;Signal;HPM_P1;HPM_P2
2022/07/16 00:04:03;;;;;;;8.80;2.90;;;;;;;9.29;62.96;99715.55;435368;1268;68806;-59
2022/07/16 00:14:09;;;;;;;6.10;3.50;;;;;;;9.38;62.99;99719.42;434738;1268;71539;-56
2022/07/16 00:24:15;;;;;;;4.30;3.50;;;;;;;9.47;63.31;99718.70;433948;1268;60665;-56
2022/07/16 00:34:22;;;;;;;8.70;3.50;;;;;;;9.55;63.48;99714.23;434727;1268;60596;-57
2022/07/16 00:44:27;;;;;;;8.20;2.90;;;;;;;9.63;63.49;99712.89;451291;1266;72928;-56
2022/07/16 00:54:34;;;;;;;4.20;2.30;;;;;;;9.72;63.41;99700.73;437850;1267;67885;-52
2022/07/16 01:04:40;;;;;;;6.30;2.80;;;;;;;9.75;63.98;99701.06;435248;1267;73290;-56
2022/07/16 01:14:46;;;;;;;9.10;3.10;;;;;;;9.83;63.93;99701.13;439887;1266;60626;-56
2022/07/16 01:24:53;;;;;;;5.50;3.50;;;;;;;9.95;63.56;99695.82;434687;1268;60565;-56
2022/07/16 01:34:59;;;;;;;7.80;3.00;;;;;;;10.08;63.34;99687.20;434685;1268;74417;-54
2022/07/16 01:45:08;;;;;;;5.70;3.20;;;;;;;10.24;63.70;99690.10;434516;1266;69608;-57
2022/07/16 01:55:14;;;;;;;7.70;3.30;;;;;;;10.35;63.81;99678.73;436172;1266;71925;-54
2022/07/16 02:05:20;;;;;;;2.70;2.30;;;;;;;10.40;63.71;99672.66;434711;1268;61290;-58
2022/07/16 02:15:26;;;;;;;5.10;2.10;;;;;;;10.56;64.05;99666.11;439244;1268;60628;-57
2022/07/16 02:25:32;;;;;;;7.30;2.50;;;;;;;10.64;64.26;99663.34;434607;1268;72741;-53
2022/07/16 02:35:39;;;;;;;5.60;3.70;;;;;;;10.66;64.27;99656.92;434617;1268;68323;-56
2022/07/16 02:45:45;;;;;;;3.20;1.80;;;;;;;10.63;64.09;99648.33;436351;1267;71738;-56
2022/07/16 02:55:51;;;;;;;2.80;2.00;;;;;;;10.62;64.20;99651.08;434406;1266;60632;-55
2022/07/16 03:05:57;;;;;;;4.70;2.00;;;;;;;10.61;64.68;99648.14;434313;1268;60555;-56
2022/07/16 03:16:03;;;;;;;4.10;2.70;;;;;;;10.59;64.48;99649.65;434537;1267;71853;-53
2022/07/16 03:26:09;;;;;;;4.00;2.30;;;;;;;10.67;64.29;99647.05;435183;1266;69396;-56
2022/07/16 03:36:16;;;;;;;8.90;3.00;;;;;;;10.86;64.27;99646.74;434856;1267;72641;-56
2022/07/16 03:46:21;;;;;;;3.40;2.50;;;;;;;11.09;64.16;99646.67;434432;1268;60606;-56
2022/07/16 03:56:28;;;;;;;4.90;1.80;;;;;;;11.28;63.75;99656.29;436525;1268;60571;-55
2022/07/16 04:06:34;;;;;;;4.10;2.80;;;;;;;11.48;63.44;99636.02;435083;1267;74048;-56
2022/07/16 04:16:41;;;;;;;2.80;2.20;;;;;;;11.65;62.87;99638.92;434474;1267;67887;-54
2022/07/16 04:26:49;;;;;;;3.20;2.10;;;;;;;11.85;62.44;99634.65;434812;1267;74204;-57
2022/07/16 04:36:55;;;;;;;4.30;2.00;;;;;;;12.07;62.06;99635.41;434384;1267;60582;-56
2022/07/16 04:47:04;;;;;;;3.20;2.20;;;;;;;12.34;61.71;99636.70;434368;1267;60906;-56
2022/07/16 04:57:10;;;;;;;9.10;1.90;;;;;;;12.65;61.31;99635.44;434657;1265;72881;-55
2022/07/16 05:07:16;;;;;;;3.10;1.80;;;;;;;12.96;61.00;99626.17;440761;1266;68217;-53
2022/07/16 05:17:22;;;;;;;4.40;2.10;;;;;;;13.30;60.71;99627.20;434422;1266;71600;-55
2022/07/16 05:27:28;;;;;;;3.00;1.60;;;;;;;13.91;60.09;99620.16;434310;1267;60591;-55
2022/07/16 05:37:34;;;;;;;3.90;1.80;;;;;;;14.89;58.76;99608.21;434558;1266;60589;-57
2022/07/16 05:47:40;;;;;;;3.10;1.60;;;;;;;16.11;56.89;99606.30;434506;1268;72903;-55
2022/07/16 05:57:46;;;;;;;3.70;1.50;;;;;;;17.53;54.42;99594.95;434451;1266;69565;-56
2022/07/16 06:07:52;;;;;;;5.70;2.30;;;;;;;18.70;51.94;99585.19;434326;1266;72865;-54
2022/07/16 06:17:58;;;;;;;2.30;1.50;;;;;;;20.03;49.83;99584.13;451120;1266;58623;-57
2022/07/16 06:28:05;;;;;;;4.50;1.70;;;;;;;21.71;47.03;99576.57;435328;1266;60845;-56
2022/07/16 06:38:10;;;;;;;3.90;1.70;;;;;;;23.01;44.30;99574.79;435633;1267;73690;-56
2022/07/16 06:48:16;;;;;;;2.60;1.70;;;;;;;23.94;41.91;99571.66;434486;1267;68613;-54
2022/07/16 06:58:22;;;;;;;5.90;1.60;;;;;;;24.67;40.39;99573.59;434605;1268;71321;-57
2022/07/16 07:08:28;;;;;;;1.90;1.30;;;;;;;26.33;38.43;99557.94;436084;1267;60945;-55
2022/07/16 07:18:34;;;;;;;3.00;1.80;;;;;;;29.85;35.16;99548.16;434867;1266;60694;-56
2022/07/16 07:28:40;;;;;;;6.60;1.50;;;;;;;33.21;30.62;99525.90;434888;1266;72635;-55
2022/07/16 07:38:47;;;;;;;2.70;1.60;;;;;;;33.65;29.35;99516.77;434721;1267;68362;-56
2022/07/16 07:48:52;;;;;;;2.80;0.80;;;;;;;42.01;24.46;99506.67;434404;1268;64009;-57
2022/07/16 07:58:59;;;;;;;1.80;1.10;;;;;;;46.30;20.15;99499.13;434169;1268;60653;-58
2022/07/16 08:09:05;;;;;;;3.50;1.30;;;;;;;44.48;17.54;99478.69;434431;1268;60575;-56
2022/07/16 08:19:11;;;;;;;1.30;1.20;;;;;;;37.32;19.38;99471.23;434532;1267;64028;-55
2022/07/16 08:29:17;;;;;;;2.00;1.10;;;;;;;33.51;21.23;99465.30;434374;1266;69201;-56
2022/07/16 08:39:24;;;;;;;1.60;1.10;;;;;;;31.55;22.51;99462.38;434645;1267;71631;-56
2022/07/16 08:49:32;;;;;;;4.60;1.70;;;;;;;28.30;25.06;99468.77;434591;1268;61067;-57
2022/07/16 08:59:38;;;;;;;3.30;1.60;;;;;;;26.25;26.88;99478.47;434396;1267;60569;-55
2022/07/16 09:09:45;;;;;;;2.60;1.20;;;;;;;24.98;28.47;99482.64;441055;1266;72812;-55
2022/07/16 09:19:51;;;;;;;5.90;1.20;;;;;;;24.15;29.93;99483.47;434445;1268;68173;-57
2022/07/16 09:29:59;;;;;;;5.10;0.90;;;;;;;24.28;30.05;99480.91;434271;1266;71604;-56
2022/07/16 09:40:08;;;;;;;8.30;1.50;;;;;;;24.20;29.93;99469.91;435409;1267;62093;-59
2022/07/16 09:50:13;;;;;;;4.30;1.10;;;;;;;23.86;30.77;99461.38;434100;1267;60557;-56
2022/07/16 10:00:19;;;;;;;4.90;1.30;;;;;;;24.36;30.70;99442.89;434305;1268;71814;-57
2022/07/16 10:10:25;;;;;;;1.90;1.40;;;;;;;25.01;29.96;99426.95;434583;1268;68382;-55
2022/07/16 10:20:38;;;;;;;4.30;1.90;;;;;;;25.42;29.90;99417.48;434351;1267;71644;-56
2022/07/16 10:30:43;;;;;;;0.80;0.40;;;;;;;25.64;29.58;99415.65;435223;1268;61371;-56
2022/07/16 10:41:07;;;;;;;4.00;0.60;;;;;;;25.41;29.49;99403.42;433351;1267;60871;-56
2022/07/16 10:51:15;;;;;;;1.70;0.60;;;;;;;25.70;29.93;99392.00;450469;1266;73724;-57
2022/07/16 11:01:21;;;;;;;5.60;1.80;;;;;;;25.18;29.88;99387.94;435345;1265;69429;-58
2022/07/16 11:11:34;;;;;;;2.30;2.00;;;;;;;24.85;30.77;99384.36;434771;1268;71332;-60
2022/07/16 11:21:51;;;;;;;1.00;0.60;;;;;;;25.25;30.21;99382.02;434758;1267;61025;-56
2022/07/16 11:31:58;;;;;;;1.60;0.60;;;;;;;24.55;30.58;99372.38;434171;1268;411367;-56
2022/07/16 11:42:04;;;;;;;2.00;0.50;;;;;;;24.25;31.16;99367.52;434526;1267;72986;-56
2022/07/16 11:52:22;;;;;;;2.70;0.50;;;;;;;24.45;31.06;99358.84;434687;1267;69423;-58
2022/07/16 12:02:28;;;;;;;2.00;0.60;;;;;;;23.37;31.67;99366.59;445468;1266;71609;-56
2022/07/16 12:12:36;;;;;;;5.90;0.80;;;;;;;21.78;35.24;99422.34;434339;1268;60768;-55
2022/07/16 12:22:56;;;;;;;0.70;0.40;;;;;;;19.00;44.28;99500.21;451250;1266;58639;-56
2022/07/16 12:33:03;;;;;;;1.30;0.90;;;;;;;17.14;50.62;99519.25;435362;1267;75226;-56
2022/07/16 12:43:09;;;;;;;1.30;0.80;;;;;;;16.36;53.72;99533.04;439276;1266;69530;-59
2022/07/16 12:53:14;;;;;;;0.70;0.70;;;;;;;15.80;56.60;99537.36;433693;1265;70754;-58
2022/07/16 13:03:21;;;;;;;1.60;0.90;;;;;;;15.74;58.24;99526.08;434009;1268;61042;-58
2022/07/16 13:13:28;;;;;;;4.00;1.70;;;;;;;16.31;58.96;99513.68;445644;1266;60557;-57
2022/07/16 13:23:35;;;;;;;1.40;0.80;;;;;;;17.17;58.61;99507.17;433416;1267;72695;-57
2022/07/16 13:33:41;;;;;;;2.30;1.00;;;;;;;17.77;58.13;99495.04;434385;1267;70429;-57
2022/07/16 13:43:47;;;;;;;2.10;0.90;;;;;;;17.74;57.51;99484.55;433821;1267;71637;-58
2022/07/16 13:53:53;;;;;;;1.20;0.80;;;;;;;17.70;57.19;99499.64;433751;1267;61095;-57
2022/07/16 14:03:59;;;;;;;1.40;1.10;;;;;;;17.78;57.15;99509.30;434815;1267;141220;-59
2022/07/16 14:14:06;;;;;;;2.10;1.10;;;;;;;17.70;57.49;99489.88;430077;1271;141480;-60
2022/07/16 14:24:12;;;;;;;2.60;1.30;;;;;;;17.05;58.40;99498.04;432092;1270;142855;-59
2022/07/16 14:34:18;;;;;;;2.40;1.10;;;;;;;16.48;59.85;99482.69;431484;1270;145657;-55
2022/07/16 14:44:24;;;;;;;3.00;1.70;;;;;;;16.29;61.06;99473.02;431777;1270;145914;-59
2022/07/16 14:54:30;;;;;;;1.10;1.00;;;;;;;16.60;61.09;99475.41;431399;1270;142677;-59
2022/07/16 15:04:36;;;;;;;1.20;1.00;;;;;;;16.64;60.34;99465.20;431715;1270;142471;-59
2022/07/16 15:14:42;;;;;;;2.30;0.60;;;;;;;16.73;59.27;99478.82;430883;1271;145355;-58
2022/07/16 15:24:48;;;;;;;0.50;0.30;;;;;;;17.02;57.84;99511.58;430500;1271;142321;-57
2022/07/16 15:34:54;;;;;;;1.10;1.00;;;;;;;17.48;56.70;99540.09;438502;1272;141362;-59
2022/07/16 15:45:00;;;;;;;1.70;0.80;;;;;;;17.21;57.33;99576.84;430819;1271;141187;-59
2022/07/16 15:55:10;;;;;;;1.80;0.60;;;;;;;17.14;57.85;99567.73;431204;1271;141381;-59
2022/07/16 16:05:16;;;;;;;0.30;0.20;;;;;;;16.62;55.97;99575.80;431875;1271;142609;-60
2022/07/16 16:15:22;;;;;;;0.30;0.30;;;;;;;16.19;55.65;99579.69;431219;1270;141677;-60
2022/07/16 16:25:29;;;;;;;0.60;0.40;;;;;;;16.20;55.73;99598.52;430311;1271;142973;-59
2022/07/16 16:35:35;;;;;;;1.80;0.80;;;;;;;15.94;54.55;99617.67;431570;1270;141540;-59
2022/07/16 16:45:41;;;;;;;0.70;0.60;;;;;;;15.62;53.80;99632.77;431195;1271;141585;-60
2022/07/16 16:55:47;;;;;;;0.80;0.40;;;;;;;15.83;53.01;99632.78;431325;1271;141554;-60
2022/07/16 17:05:53;;;;;;;2.30;0.70;;;;;;;15.66;52.26;99629.59;431481;1271;140986;-59
2022/07/16 17:15:59;;;;;;;0.90;0.30;;;;;;;15.60;52.18;99638.95;430638;1271;143949;-59
2022/07/16 17:26:05;;;;;;;2.80;0.70;;;;;;;15.42;52.10;99647.27;436577;1271;141328;-58
2022/07/16 17:36:14;;;;;;;1.00;0.40;;;;;;;15.20;51.97;99658.27;433223;1271;142026;-59
2022/07/16 17:46:20;;;;;;;0.80;0.70;;;;;;;14.90;52.00;99656.81;430674;1271;163582;-60
2022/07/16 17:56:26;;;;;;;0.70;0.50;;;;;;;14.75;52.41;99661.39;432078;1271;141055;-61
2022/07/16 18:06:32;;;;;;;2.10;0.90;;;;;;;14.68;52.12;99672.40;431576;1271;141941;-60
2022/07/16 18:16:38;;;;;;;1.60;0.80;;;;;;;14.61;51.93;99668.74;430779;1271;142230;-60
2022/07/16 18:26:45;;;;;;;0.50;0.40;;;;;;;15.64;51.53;99661.86;431482;1271;142257;-59
2022/07/16 18:36:51;;;;;;;0.80;0.60;;;;;;;14.68;51.89;99677.02;431467;1271;142025;-59
2022/07/16 18:46:57;;;;;;;1.00;0.80;;;;;;;13.83;53.78;99687.23;431386;1270;142022;-60
2022/07/16 18:57:03;;;;;;;1.70;0.50;;;;;;;13.13;55.32;99702.41;432032;1270;142633;-61
2022/07/16 19:07:09;;;;;;;2.10;1.10;;;;;;;12.61;56.41;99725.05;431581;1271;141627;-59
2022/07/16 19:17:15;;;;;;;1.90;1.20;;;;;;;12.20;57.65;99742.46;431521;1271;141612;-59
2022/07/16 19:27:22;;;;;;;2.30;0.70;;;;;;;11.87;58.87;99754.65;439589;1270;142407;-59
2022/07/16 19:37:28;;;;;;;2.30;0.90;;;;;;;11.56;60.04;99764.90;432476;1270;143416;-59
2022/07/16 19:47:33;;;;;;;1.40;1.10;;;;;;;11.30;61.02;99770.93;431614;1272;142036;-60
2022/07/16 20:08:04;;;;;;;3.40;1.10;;;;;;;10.85;62.87;99789.86;430776;1270;141355;-60
2022/07/16 20:18:10;;;;;;;3.50;1.00;;;;;;;10.73;63.54;99789.39;431374;1270;148406;-59
2022/07/16 20:28:16;;;;;;;18.30;2.20;;;;;;;10.68;63.81;99788.98;432037;1271;141473;-60
2022/07/16 20:38:22;;;;;;;1.90;1.70;;;;;;;10.69;64.32;99799.61;431545;1270;142846;-59
2022/07/16 20:48:27;;;;;;;2.30;1.20;;;;;;;10.71;64.55;99812.43;431443;1271;146237;-58
2022/07/16 20:58:33;;;;;;;1.90;1.10;;;;;;;10.69;64.79;99824.45;431215;1270;141571;-58
2022/07/16 21:08:39;;;;;;;10.80;8.20;;;;;;;10.68;64.92;99838.88;431613;1270;141947;-58
2022/07/16 21:18:45;;;;;;;4.70;1.70;;;;;;;10.69;65.39;99847.92;431318;1271;146158;-59
2022/07/16 21:28:52;;;;;;;2.20;1.40;;;;;;;11.02;65.44;99857.98;431174;1270;141882;-59
2022/07/16 21:38:58;;;;;;;1.00;0.80;;;;;;;11.46;65.31;99865.14;431715;1270;142727;-59
2022/07/16 21:49:04;;;;;;;2.50;0.80;;;;;;;11.72;64.95;99873.80;432161;1270;142043;-59
2022/07/16 21:59:10;;;;;;;0.80;0.80;;;;;;;11.58;64.87;99882.05;431000;1270;142440;-59
2022/07/16 22:09:15;;;;;;;2.60;1.30;;;;;;;11.46;65.03;99886.83;432135;1270;141969;-59
2022/07/16 22:29:46;;;;;;;2.00;1.50;;;;;;;11.35;65.40;99895.91;431946;1270;142376;-59
2022/07/16 22:39:51;;;;;;;3.10;2.70;;;;;;;11.22;65.69;99903.39;431909;1271;142039;-58
2022/07/16 22:49:58;;;;;;;4.40;1.50;;;;;;;11.06;66.10;99911.54;430745;1273;142237;-58
2022/07/16 23:00:07;;;;;;;2.30;1.10;;;;;;;10.99;66.46;99917.55;431302;1272;142167;-60
2022/07/16 23:10:13;;;;;;;1.80;1.00;;;;;;;10.89;66.72;99923.26;431793;1270;145387;-59
2022/07/16 23:20:19;;;;;;;1.60;0.80;;;;;;;10.80;67.09;99930.24;431267;1271;143022;-58
2022/07/16 23:30:25;;;;;;;3.10;0.90;;;;;;;10.73;67.25;99930.48;431046;1270;423118;-59
2022/07/16 23:40:31;;;;;;;3.70;0.80;;;;;;;10.58;67.54;99934.15;430645;1270;142675;-60
2022/07/16 23:50:37;;;;;;;2.40;1.20;;;;;;;10.46;67.87;99938.38;431520;1271;142072;-59
